Time;durP1;ratioP1;P1;durP2;ratioP2;P2;SDS_P1;SDS_P2;PMS_P1;PMS_P2;Temp;Humidity;BMP_temperature;BMP_pressure;BME280_temperature;BME280_humidity;BME280_pressure;Samples;Min_cycle;Max_cycle;Signal;HPM_P1;HPM_P2
2023/08/28 00:02:19;;;;;;;4.50;2.20;;;13.40;99.90;;;;;;4987714;28;20041;-78
2023/08/28 00:04:44;;;;;;;1.63;1.50;;;13.50;99.90;;;;;;4988681;28;20030;-79
2023/08/28 00:07:10;;;;;;;2.22;1.80;;;13.40;99.90;;;;;;4969797;28;20033;-79
2023/08/28 00:09:36;;;;;;;4.90;1.98;;;13.30;99.90;;;;;;4989088;28;20029;-78
2023/08/28 00:12:02;;;;;;;2.05;1.60;;;13.40;99.90;;;;;;4973000;28;20044;-80
2023/08/28 00:14:28;;;;;;;2.83;1.65;;;13.30;99.90;;;;;;5003410;28;20072;-76
2023/08/28 00:16:54;;;;;;;3.03;2.15;;;13.20;99.90;;;;;;5005663;28;20330;-78
2023/08/28 00:19:19;;;;;;;3.92;2.70;;;13.10;99.90;;;;;;4971942;28;20054;-79
2023/08/28 00:21:45;;;;;;;3.60;2.45;;;12.80;99.90;;;;;;4982888;28;20022;-77
2023/08/28 00:24:11;;;;;;;2.67;2.47;;;12.90;99.90;;;;;;4971343;28;20072;-76
2023/08/28 00:26:36;;;;;;;3.72;2.70;;;12.70;99.90;;;;;;4984637;28;20057;-78
2023/08/28 00:29:02;;;;;;;5.20;2.85;;;12.60;99.90;;;;;;4972403;28;20714;-77
2023/08/28 00:31:28;;;;;;;3.63;2.95;;;12.50;99.90;;;;;;4972641;28;20025;-78
2023/08/28 00:33:54;;;;;;;4.20;2.05;;;12.50;99.90;;;;;;5017312;28;20456;-79
2023/08/28 00:36:19;;;;;;;5.38;1.90;;;12.50;99.90;;;;;;4985190;28;20030;-78
2023/08/28 00:38:45;;;;;;;3.83;2.13;;;12.70;99.90;;;;;;4988095;28;20038;-78
2023/08/28 00:41:11;;;;;;;6.90;2.08;;;12.90;99.90;;;;;;4969344;28;20049;-79
2023/08/28 00:43:37;;;;;;;3.75;2.63;;;12.90;99.90;;;;;;4984374;28;20076;-79
2023/08/28 00:46:03;;;;;;;6.53;2.47;;;12.80;99.90;;;;;;4992554;28;20561;-78
2023/08/28 00:48:29;;;;;;;3.90;2.15;;;12.50;99.90;;;;;;4984469;28;20040;-78
2023/08/28 00:50:54;;;;;;;4.55;1.85;;;12.40;99.90;;;;;;4971901;28;20429;-78
2023/08/28 00:53:20;;;;;;;3.00;2.70;;;12.50;99.90;;;;;;5003932;28;20038;-79
2023/08/28 00:55:46;;;;;;;3.05;2.35;;;12.50;99.90;;;;;;4970690;28;20091;-79
2023/08/28 00:58:12;;;;;;;5.30;3.22;;;12.40;99.90;;;;;;4970882;28;20448;-78
2023/08/28 01:00:38;;;;;;;3.67;2.30;;;12.40;99.90;;;;;;4985512;28;20041;-78
2023/08/28 01:03:04;;;;;;;2.72;2.00;;;12.40;99.90;;;;;;4982924;28;20087;-78
2023/08/28 01:05:51;;;;;;;2.60;2.40;;;12.50;99.90;;;;;;5001723;28;20383;-79
2023/08/28 01:08:34;;;;;;;4.97;2.53;;;12.60;99.90;;;;;;5005041;28;20401;-79
2023/08/28 01:11:10;;;;;;;3.00;2.10;;;12.80;99.90;;;;;;4969890;28;20033;-79
2023/08/28 01:13:42;;;;;;;1.65;1.55;;;12.80;99.90;;;;;;4986616;28;20079;-79
2023/08/28 01:16:07;;;;;;;4.40;2.22;;;12.80;99.90;;;;;;5002712;28;20032;-79
2023/08/28 01:18:33;;;;;;;5.70;3.20;;;12.60;99.90;;;;;;4985280;28;20045;-78
2023/08/28 01:20:59;;;;;;;4.80;3.47;;;12.50;99.90;;;;;;4985416;28;20034;-78
2023/08/28 01:23:31;;;;;;;3.65;1.90;;;12.20;99.90;;;;;;4983473;28;20524;-80
2023/08/28 01:25:57;;;;;;;6.03;2.13;;;12.50;99.90;;;;;;4995611;28;20029;-79
2023/08/28 01:28:24;;;;;;;7.05;3.38;;;12.60;99.90;;;;;;4984690;28;20095;-80
2023/08/28 01:30:51;;;;;;;4.93;1.88;;;12.60;99.90;;;;;;4984649;28;20034;-79
2023/08/28 01:33:17;;;;;;;5.00;3.00;;;12.60;99.90;;;;;;4980557;28;20033;-80
2023/08/28 01:35:43;;;;;;;4.95;2.72;;;12.70;99.90;;;;;;4985816;28;20037;-79
2023/08/28 01:38:19;;;;;;;3.00;2.80;;;12.70;99.90;;;;;;4968319;28;20033;-78
2023/08/28 01:40:46;;;;;;;;;;;12.70;99.90;;;;;;5001655;28;20053;-80
2023/08/28 01:43:13;;;;;;;3.80;3.20;;;12.20;99.90;;;;;;4999339;28;19921;-80
2023/08/28 01:45:38;;;;;;;5.40;2.65;;;12.20;99.90;;;;;;4968968;28;20386;-79
2023/08/28 01:48:05;;;;;;;4.72;3.80;;;12.20;99.90;;;;;;5002352;28;20044;-79
2023/08/28 01:50:31;;;;;;;4.78;3.80;;;12.10;99.90;;;;;;4981854;28;20401;-78
2023/08/28 01:52:56;;;;;;;3.75;2.45;;;12.00;99.90;;;;;;4983172;28;20030;-80
2023/08/28 01:55:58;;;;;;;7.15;4.50;;;12.30;99.90;;;;;;4985015;28;20055;-79
2023/08/28 01:58:24;;;;;;;3.55;2.65;;;12.20;99.90;;;;;;5001833;28;20044;-79
2023/08/28 02:00:49;;;;;;;4.65;4.00;;;12.20;99.90;;;;;;4981833;28;20025;-79
2023/08/28 02:03:15;;;;;;;5.45;4.10;;;12.10;99.90;;;;;;4981021;28;20398;-80
2023/08/28 02:05:40;;;;;;;6.07;4.35;;;12.00;99.90;;;;;;4970427;28;20492;-79
2023/08/28 02:08:06;;;;;;;5.03;2.58;;;12.00;99.90;;;;;;4982849;28;20029;-79
2023/08/28 02:10:32;;;;;;;3.75;3.40;;;12.10;99.90;;;;;;4990678;28;20420;-79
2023/08/28 02:12:57;;;;;;;6.28;4.03;;;12.00;99.90;;;;;;4987247;28;20316;-78
2023/08/28 02:15:23;;;;;;;5.00;4.45;;;12.00;99.90;;;;;;4974126;28;20026;-79
2023/08/28 02:17:48;;;;;;;8.23;4.88;;;12.10;99.90;;;;;;4967762;28;20073;-78
2023/08/28 02:20:14;;;;;;;5.95;5.45;;;12.00;99.90;;;;;;4989702;28;20056;-80
2023/08/28 02:22:39;;;;;;;4.95;4.47;;;11.90;99.90;;;;;;4973012;28;20033;-78
2023/08/28 02:25:08;;;;;;;8.95;4.78;;;11.80;99.90;;;;;;4973343;28;20042;-79
2023/08/28 02:27:33;;;;;;;5.20;2.78;;;11.70;99.90;;;;;;4985695;28;20508;-78
2023/08/28 02:30:00;;;;;;;12.25;5.35;;;11.70;99.90;;;;;;4989455;28;20022;-78
2023/08/28 02:32:25;;;;;;;5.07;3.58;;;11.60;99.90;;;;;;4987640;28;20554;-78
2023/08/28 02:34:51;;;;;;;6.15;4.55;;;11.90;99.90;;;;;;4989651;28;20037;-79
2023/08/28 02:37:16;;;;;;;2.88;2.67;;;11.90;99.90;;;;;;4963193;28;20087;-78
2023/08/28 02:39:42;;;;;;;4.35;3.63;;;11.80;99.90;;;;;;4990393;28;20371;-78
2023/08/28 02:42:08;;;;;;;5.32;4.68;;;11.80;99.90;;;;;;4985495;28;20110;-78
2023/08/28 02:44:33;;;;;;;5.18;4.45;;;11.80;99.90;;;;;;4988019;28;20441;-78
2023/08/28 02:46:59;;;;;;;7.78;4.85;;;11.70;99.90;;;;;;4988553;28;20030;-78
2023/08/28 02:49:24;;;;;;;3.22;2.92;;;11.80;99.90;;;;;;4987224;28;20058;-78
2023/08/28 02:51:50;;;;;;;5.28;4.32;;;11.80;99.90;;;;;;5006216;28;20029;-78
2023/08/28 02:54:15;;;;;;;3.92;3.38;;;11.80;99.90;;;;;;4985924;28;20033;-80
2023/08/28 02:56:41;;;;;;;2.70;2.50;;;11.70;99.90;;;;;;5004722;28;20037;-78
2023/08/28 02:59:07;;;;;;;6.72;5.43;;;11.90;99.90;;;;;;4983236;28;20034;-78
2023/08/28 03:01:34;;;;;;;4.05;3.33;;;11.80;99.90;;;;;;4989612;28;20026;-78
2023/08/28 03:04:06;;;;;;;4.93;4.05;;;11.80;99.90;;;;;;4998002;28;20483;-79
2023/08/28 03:06:35;;;;;;;3.65;3.35;;;11.90;99.90;;;;;;4989663;28;20394;-79
2023/08/28 03:09:01;;;;;;;5.25;4.68;;;11.70;99.90;;;;;;4993896;28;20203;-79
2023/08/28 03:11:26;;;;;;;3.85;2.85;;;11.70;99.90;;;;;;4986450;28;20505;-78
2023/08/28 03:13:52;;;;;;;3.83;2.40;;;11.60;99.90;;;;;;4969592;28;20037;-78
2023/08/28 03:16:17;;;;;;;4.22;3.50;;;11.80;99.90;;;;;;5001106;28;20041;-78
2023/08/28 03:18:43;;;;;;;3.15;2.70;;;11.90;99.90;;;;;;4981821;28;20035;-78
2023/08/28 03:21:09;;;;;;;6.45;4.45;;;11.90;99.90;;;;;;4967864;28;20485;-78
2023/08/28 03:23:34;;;;;;;6.32;2.92;;;11.80;99.90;;;;;;4987056;28;20060;-79
2023/08/28 03:26:00;;;;;;;4.72;4.25;;;11.80;99.90;;;;;;4982245;28;20033;-78
2023/08/28 03:28:25;;;;;;;3.78;3.35;;;11.90;99.90;;;;;;5004759;28;20508;-77
2023/08/28 03:30:51;;;;;;;8.60;6.45;;;11.80;99.90;;;;;;4988067;28;20036;-78
2023/08/28 03:33:16;;;;;;;6.90;6.20;;;11.70;99.90;;;;;;4987637;28;20032;-80
2023/08/28 03:35:42;;;;;;;9.48;6.60;;;11.50;99.90;;;;;;5001020;28;20029;-79
2023/08/28 03:38:07;;;;;;;8.18;7.38;;;11.30;99.90;;;;;;4991704;28;20048;-78
2023/08/28 03:40:34;;;;;;;9.18;7.40;;;11.30;99.90;;;;;;4990910;28;20410;-79
2023/08/28 03:43:00;;;;;;;5.95;4.65;;;11.30;99.90;;;;;;4969436;28;20046;-78
2023/08/28 03:45:25;;;;;;;3.88;3.13;;;11.20;99.90;;;;;;4967696;28;20037;-79
2023/08/28 03:47:51;;;;;;;3.65;3.00;;;11.40;99.90;;;;;;4973410;28;20030;-78
2023/08/28 03:50:16;;;;;;;4.63;4.15;;;11.70;99.90;;;;;;4985965;28;20026;-80
2023/08/28 03:52:42;;;;;;;4.78;4.38;;;11.80;99.90;;;;;;4989811;28;20535;-79
2023/08/28 03:55:08;;;;;;;2.80;2.53;;;11.90;99.90;;;;;;4989964;28;20037;-79
2023/08/28 03:57:34;;;;;;;5.55;5.05;;;11.60;99.90;;;;;;4974128;28;20037;-77
2023/08/28 04:00:00;;;;;;;5.68;4.53;;;11.70;99.90;;;;;;4989618;28;20052;-79
2023/08/28 04:02:26;;;;;;;5.88;4.60;;;11.60;99.90;;;;;;4967848;28;20034;-78
2023/08/28 04:04:52;;;;;;;10.25;3.83;;;11.60;99.90;;;;;;5001815;28;20057;-79
2023/08/28 04:07:22;;;;;;;5.57;5.03;;;11.60;99.90;;;;;;4989386;28;20458;-81
2023/08/28 04:09:48;;;;;;;5.38;4.70;;;11.70;99.90;;;;;;5003923;28;20030;-79
2023/08/28 04:12:13;;;;;;;4.88;4.13;;;11.60;99.90;;;;;;5003392;28;20029;-79
2023/08/28 04:14:39;;;;;;;6.63;6.03;;;11.40;99.90;;;;;;4987649;28;20068;-79
2023/08/28 04:17:04;;;;;;;11.38;8.07;;;11.40;99.90;;;;;;5004601;28;20030;-78
2023/08/28 04:19:30;;;;;;;10.63;7.82;;;11.30;99.90;;;;;;4969617;28;20033;-79
2023/08/28 04:21:56;;;;;;;11.13;8.85;;;11.30;99.90;;;;;;4984580;28;20026;-79
2023/08/28 04:24:21;;;;;;;18.83;9.98;;;11.30;99.90;;;;;;5000939;28;20120;-80
2023/08/28 04:26:47;;;;;;;12.45;8.68;;;11.30;99.90;;;;;;4997424;28;20029;-79
2023/08/28 04:29:12;;;;;;;10.75;8.75;;;11.20;99.90;;;;;;4988957;28;20026;-79
2023/08/28 04:31:38;;;;;;;12.38;9.38;;;11.10;99.90;;;;;;4973802;28;20455;-79
2023/08/28 04:34:03;;;;;;;7.60;6.70;;;11.20;99.90;;;;;;4966437;28;20780;-79
2023/08/28 04:36:29;;;;;;;14.82;10.35;;;11.00;99.90;;;;;;4984356;28;20748;-79
2023/08/28 04:38:54;;;;;;;10.98;8.35;;;11.10;99.90;;;;;;5005346;28;20065;-79
2023/08/28 04:41:20;;;;;;;15.55;9.93;;;11.40;99.90;;;;;;4973174;28;20128;-80
2023/08/28 04:43:45;;;;;;;10.15;8.65;;;11.30;99.90;;;;;;4999215;28;20042;-80
2023/08/28 04:46:11;;;;;;;14.05;10.88;;;11.10;99.90;;;;;;4972025;28;20046;-79
2023/08/28 04:48:37;;;;;;;15.32;10.93;;;11.00;99.90;;;;;;4970028;28;20092;-79
2023/08/28 04:51:04;;;;;;;14.98;11.13;;;10.90;99.90;;;;;;4976157;28;20036;-80
2023/08/28 04:53:30;;;;;;;14.50;11.35;;;10.90;99.90;;;;;;4988723;28;20382;-79
2023/08/28 04:55:55;;;;;;;11.90;9.35;;;10.80;99.90;;;;;;5001262;28;20025;-80
2023/08/28 04:58:21;;;;;;;18.75;11.70;;;10.80;99.90;;;;;;4967002;28;20513;-79
2023/08/28 05:00:46;;;;;;;9.27;6.80;;;10.80;99.90;;;;;;4998157;28;20045;-79
2023/08/28 05:03:12;;;;;;;17.17;12.13;;;10.90;99.90;;;;;;4970485;28;20029;-79
2023/08/28 05:05:37;;;;;;;14.75;12.65;;;10.90;99.90;;;;;;4987546;28;20041;-79
2023/08/28 05:08:05;;;;;;;9.63;7.43;;;10.90;99.90;;;;;;4980871;28;20041;-79
2023/08/28 05:10:31;;;;;;;10.88;8.45;;;11.00;99.90;;;;;;4985239;28;20088;-78
2023/08/28 05:12:56;;;;;;;6.47;5.85;;;11.20;99.90;;;;;;4999456;28;20041;-79
2023/08/28 05:15:22;;;;;;;11.25;6.88;;;11.30;99.90;;;;;;4982823;28;20517;-78
2023/08/28 05:17:48;;;;;;;14.35;12.13;;;11.30;99.90;;;;;;4990078;28;20075;-78
2023/08/28 05:20:13;;;;;;;12.90;9.05;;;11.30;99.90;;;;;;4981383;28;20053;-80
2023/08/28 05:22:40;;;;;;;25.77;13.35;;;11.40;99.90;;;;;;5000985;28;20034;-79
2023/08/28 05:25:06;;;;;;;16.27;13.10;;;11.40;99.90;;;;;;4997914;28;20037;-77
2023/08/28 05:27:31;;;;;;;19.27;11.77;;;11.50;99.90;;;;;;4999269;28;20106;-78
2023/08/28 05:29:57;;;;;;;12.05;5.38;;;11.50;99.90;;;;;;4998256;28;20040;-79
2023/08/28 05:32:22;;;;;;;10.95;7.93;;;11.60;99.90;;;;;;4969048;28;20037;-79
2023/08/28 05:34:48;;;;;;;12.57;8.20;;;11.80;99.90;;;;;;4987588;28;20083;-80
2023/08/28 05:37:13;;;;;;;10.15;6.35;;;11.80;99.90;;;;;;4984634;28;20505;-79
2023/08/28 05:39:39;;;;;;;8.45;6.78;;;11.90;99.90;;;;;;4968012;28;20036;-79
2023/08/28 05:42:05;;;;;;;12.57;8.65;;;11.90;99.90;;;;;;4978818;28;20026;-78
2023/08/28 05:44:30;;;;;;;14.73;8.13;;;11.90;99.90;;;;;;4967880;28;20029;-79
2023/08/28 05:46:56;;;;;;;10.50;9.20;;;11.90;99.90;;;;;;4975376;28;20586;-78
2023/08/28 05:49:21;;;;;;;13.20;10.35;;;11.90;99.90;;;;;;4999713;28;20112;-80
2023/08/28 05:51:47;;;;;;;11.75;10.52;;;12.10;99.90;;;;;;4986290;28;20025;-79
2023/08/28 05:54:12;;;;;;;13.77;10.98;;;12.10;99.90;;;;;;4958897;28;20061;-79
2023/08/28 05:56:38;;;;;;;9.80;6.25;;;12.10;99.90;;;;;;4982689;28;20120;-79
2023/08/28 05:59:03;;;;;;;12.32;9.30;;;12.20;99.90;;;;;;4983868;28;20041;-79
2023/08/28 06:01:29;;;;;;;15.77;11.32;;;12.30;99.90;;;;;;4963753;28;20049;-79
2023/08/28 06:03:56;;;;;;;7.25;6.50;;;12.30;99.90;;;;;;4984388;28;20038;-79
2023/08/28 06:06:23;;;;;;;6.40;5.80;;;12.50;99.90;;;;;;4987306;28;20060;-79
2023/08/28 06:08:54;;;;;;;15.63;9.07;;;12.60;99.90;;;;;;4989259;28;20057;-78
2023/08/28 06:11:20;;;;;;;9.82;7.68;;;12.70;99.90;;;;;;5001604;28;20037;-78
2023/08/28 06:13:45;;;;;;;4.65;4.22;;;12.70;99.90;;;;;;4987610;28;20390;-78
2023/08/28 06:16:11;;;;;;;6.20;5.45;;;12.80;99.90;;;;;;4981233;28;20053;-78
2023/08/28 06:18:37;;;;;;;8.05;5.80;;;12.90;99.90;;;;;;4994736;28;20085;-78
2023/08/28 06:21:02;;;;;;;6.35;4.13;;;12.90;99.90;;;;;;4982891;28;20029;-78
2023/08/28 06:23:29;;;;;;;9.18;7.00;;;13.00;99.90;;;;;;4976458;28;20045;-79
2023/08/28 06:25:55;;;;;;;14.05;8.43;;;13.00;99.90;;;;;;4987908;28;20030;-78
2023/08/28 06:28:20;;;;;;;7.00;6.20;;;13.10;99.90;;;;;;4968628;28;20032;-79
2023/08/28 06:30:46;;;;;;;8.77;5.85;;;13.20;99.90;;;;;;4984423;28;20500;-78
2023/08/28 06:33:13;;;;;;;7.97;4.63;;;13.30;99.90;;;;;;4965320;28;21401;-79
2023/08/28 06:35:39;;;;;;;7.57;5.70;;;13.30;99.90;;;;;;4955552;28;20108;-79
2023/08/28 06:38:07;;;;;;;10.55;5.68;;;13.40;99.90;;;;;;4982336;28;20033;-78
2023/08/28 06:40:33;;;;;;;10.77;7.57;;;13.50;99.90;;;;;;4999815;28;20065;-78
2023/08/28 06:42:58;;;;;;;8.27;6.78;;;13.60;99.90;;;;;;5000416;28;20057;-78
2023/08/28 06:45:24;;;;;;;8.85;6.47;;;13.80;99.90;;;;;;4987245;28;20425;-78
2023/08/28 06:47:49;;;;;;;8.38;4.85;;;13.90;99.90;;;;;;4996978;28;20033;-78
2023/08/28 06:50:16;;;;;;;7.28;6.30;;;14.00;99.90;;;;;;4964793;28;20030;-78
2023/08/28 06:52:41;;;;;;;10.55;6.95;;;14.10;99.90;;;;;;4966076;28;20448;-78
2023/08/28 06:55:07;;;;;;;9.65;5.45;;;14.10;99.90;;;;;;4986781;28;20033;-78
2023/08/28 06:57:33;;;;;;;9.00;6.45;;;14.20;99.90;;;;;;5002089;28;20088;-78
2023/08/28 07:00:00;;;;;;;16.13;10.05;;;14.30;99.90;;;;;;5006572;28;20500;-78
2023/08/28 07:02:25;;;;;;;7.85;4.90;;;14.40;99.90;;;;;;5006701;28;20559;-79
2023/08/28 07:04:51;;;;;;;12.98;8.63;;;14.50;99.90;;;;;;4976652;28;20068;-78
2023/08/28 07:07:18;;;;;;;16.17;10.55;;;14.70;99.90;;;;;;4989358;28;20126;-78
2023/08/28 07:09:43;;;;;;;7.53;5.28;;;14.70;99.90;;;;;;4986538;28;20026;-78
2023/08/28 07:12:09;;;;;;;11.13;6.82;;;14.90;99.90;;;;;;5001660;28;20044;-79
2023/08/28 07:14:34;;;;;;;6.80;5.32;;;15.10;99.90;;;;;;4986839;28;20021;-78
2023/08/28 07:17:01;;;;;;;4.97;4.45;;;15.20;99.90;;;;;;4989119;28;20126;-79
2023/08/28 07:19:27;;;;;;;7.95;3.35;;;15.20;99.90;;;;;;5008163;28;20491;-79
2023/08/28 07:21:55;;;;;;;4.22;3.45;;;15.30;99.90;;;;;;4967023;28;22178;-80
2023/08/28 07:24:21;;;;;;;12.63;8.13;;;15.40;99.90;;;;;;5003239;28;20485;-77
2023/08/28 07:26:46;;;;;;;10.10;7.72;;;15.50;99.90;;;;;;5003381;28;20026;-78
2023/08/28 07:29:12;;;;;;;14.52;9.30;;;15.50;99.90;;;;;;4990252;28;20026;-78
2023/08/28 07:31:38;;;;;;;9.75;5.45;;;15.50;99.90;;;;;;5003405;28;20018;-78
2023/08/28 07:34:04;;;;;;;7.40;5.15;;;15.60;99.90;;;;;;5004334;28;20414;-78
2023/08/28 07:36:30;;;;;;;12.70;9.27;;;15.90;99.90;;;;;;4991403;28;20494;-79
2023/08/28 07:38:55;;;;;;;7.45;4.40;;;16.10;99.90;;;;;;4985945;28;20069;-78
2023/08/28 07:41:21;;;;;;;6.03;4.78;;;16.00;99.90;;;;;;5001342;28;20028;-79
2023/08/28 07:43:47;;;;;;;5.97;4.20;;;16.00;99.90;;;;;;4997867;28;20130;-79
2023/08/28 07:46:12;;;;;;;5.75;4.22;;;16.00;99.90;;;;;;5017807;28;20062;-78
2023/08/28 07:48:38;;;;;;;5.40;3.67;;;16.00;99.90;;;;;;4996239;28;20143;-80
2023/08/28 07:51:04;;;;;;;4.80;3.63;;;16.20;99.90;;;;;;4986298;28;20032;-79
2023/08/28 07:53:30;;;;;;;8.98;5.05;;;16.60;99.90;;;;;;5000591;28;20367;-80
2023/08/28 07:55:56;;;;;;;8.60;5.47;;;16.90;99.90;;;;;;4989127;28;20029;-78
2023/08/28 07:58:21;;;;;;;5.63;5.03;;;17.00;99.90;;;;;;4985320;28;20774;-77
2023/08/28 08:00:47;;;;;;;10.25;5.93;;;17.20;99.90;;;;;;5016175;28;20194;-77
2023/08/28 08:03:12;;;;;;;12.13;6.50;;;17.50;99.90;;;;;;4997926;28;20064;-78
2023/08/28 08:05:38;;;;;;;8.70;5.75;;;17.50;99.90;;;;;;4984309;28;20038;-78
2023/08/28 08:08:04;;;;;;;13.55;9.05;;;17.80;99.90;;;;;;4986587;28;20026;-77
2023/08/28 08:10:32;;;;;;;7.90;5.00;;;17.80;99.90;;;;;;5001629;28;20034;-78
2023/08/28 08:12:57;;;;;;;8.32;4.65;;;18.00;99.90;;;;;;4972772;28;20041;-77
2023/08/28 08:15:23;;;;;;;13.20;7.88;;;18.30;99.90;;;;;;4982895;28;20132;-77
2023/08/28 08:17:48;;;;;;;10.00;7.22;;;18.60;99.90;;;;;;4966140;28;20041;-78
2023/08/28 08:20:15;;;;;;;6.97;5.15;;;18.80;99.90;;;;;;4982726;28;20037;-78
2023/08/28 08:22:42;;;;;;;8.60;4.95;;;18.90;99.90;;;;;;4967834;28;20057;-77
2023/08/28 08:25:09;;;;;;;8.13;5.38;;;19.00;99.90;;;;;;5005747;28;20030;-78
2023/08/28 08:27:34;;;;;;;10.63;5.97;;;18.90;99.90;;;;;;4985941;28;20049;-77
2023/08/28 08:30:00;;;;;;;6.45;4.57;;;19.10;99.90;;;;;;5000766;28;20071;-78
2023/08/28 08:32:25;;;;;;;10.45;6.47;;;19.20;99.90;;;;;;4985186;28;20045;-78
2023/08/28 08:34:51;;;;;;;12.27;5.45;;;19.30;99.90;;;;;;4983580;28;20038;-78
2023/08/28 08:37:16;;;;;;;10.65;6.32;;;19.40;99.90;;;;;;4964950;28;20047;-77
2023/08/28 08:39:42;;;;;;;9.57;6.63;;;19.40;99.90;;;;;;5002311;28;20024;-77
2023/08/28 08:42:08;;;;;;;10.38;8.25;;;19.40;99.90;;;;;;4986159;28;20109;-77
2023/08/28 08:44:34;;;;;;;6.85;5.88;;;19.40;99.90;;;;;;4997040;28;20041;-77
2023/08/28 08:47:05;;;;;;;8.88;6.30;;;19.50;99.90;;;;;;4970744;28;20528;-77
2023/08/28 08:49:32;;;;;;;15.80;8.88;;;19.50;99.90;;;;;;4983714;28;20029;-78
2023/08/28 08:52:02;;;;;;;9.30;6.72;;;19.70;99.90;;;;;;4984235;28;20029;-79
2023/08/28 08:54:34;;;;;;;7.10;5.18;;;19.70;99.90;;;;;;4968114;28;20549;-77
2023/08/28 08:57:00;;;;;;;12.18;6.30;;;19.90;99.90;;;;;;4985305;28;20030;-77
2023/08/28 08:59:26;;;;;;;7.22;5.70;;;20.00;99.90;;;;;;4997414;28;20048;-77
2023/08/28 09:01:52;;;;;;;5.68;4.35;;;20.00;99.90;;;;;;4965055;28;20041;-78
2023/08/28 09:04:19;;;;;;;6.03;4.95;;;20.10;99.90;;;;;;5003333;28;20029;-77
2023/08/28 09:06:44;;;;;;;7.00;6.32;;;20.30;99.90;;;;;;4970600;28;20029;-78
2023/08/28 09:09:11;;;;;;;8.30;6.28;;;20.50;99.90;;;;;;5001747;28;20029;-78
2023/08/28 09:11:37;;;;;;;9.55;6.68;;;20.60;99.90;;;;;;4995425;28;20490;-78
2023/08/28 09:14:04;;;;;;;7.63;4.88;;;20.80;99.90;;;;;;4986200;28;20085;-77
2023/08/28 09:16:30;;;;;;;9.13;5.80;;;20.90;99.90;;;;;;4981914;28;20029;-78
2023/08/28 09:18:56;;;;;;;6.38;5.75;;;21.20;99.90;;;;;;4997779;28;20029;-78
2023/08/28 09:21:21;;;;;;;5.80;4.57;;;21.40;99.90;;;;;;4997532;28;20033;-78
2023/08/28 09:23:50;;;;;;;5.50;4.40;;;21.40;99.90;;;;;;4965572;28;20038;-77
2023/08/28 09:26:18;;;;;;;7.63;4.30;;;21.70;99.90;;;;;;4988226;28;20509;-77
2023/08/28 09:29:00;;;;;;;6.63;5.47;;;21.90;99.90;;;;;;5001630;28;20022;-77
2023/08/28 09:31:33;;;;;;;6.47;5.05;;;22.10;99.90;;;;;;4980673;28;20040;-78
2023/08/28 09:34:00;;;;;;;11.90;5.82;;;22.20;99.90;;;;;;5001912;28;20436;-78
2023/08/28 09:36:25;;;;;;;7.18;4.28;;;22.20;99.90;;;;;;4995440;28;20124;-78
2023/08/28 09:38:51;;;;;;;6.55;4.47;;;22.30;99.90;;;;;;4996150;28;20104;-78
2023/08/28 09:41:17;;;;;;;5.30;3.85;;;22.20;99.90;;;;;;4999711;28;20037;-77
2023/08/28 09:43:43;;;;;;;7.93;4.97;;;22.20;99.90;;;;;;4982306;28;20489;-79
2023/08/28 09:46:09;;;;;;;8.18;5.70;;;22.30;99.90;;;;;;4981072;28;20086;-78
2023/08/28 09:48:35;;;;;;;6.55;4.47;;;22.40;99.90;;;;;;4980523;28;20052;-77
2023/08/28 09:51:04;;;;;;;5.25;4.25;;;22.50;99.90;;;;;;4983646;28;20063;-79
2023/08/28 09:53:30;;;;;;;7.55;4.35;;;22.60;99.90;;;;;;4987905;28;20037;-79
2023/08/28 09:55:57;;;;;;;6.15;5.40;;;22.70;99.90;;;;;;4982112;28;20320;-78
2023/08/28 09:58:26;;;;;;;5.93;4.55;;;22.70;99.90;;;;;;4971165;28;20092;-78
2023/08/28 10:00:54;;;;;;;5.82;4.57;;;22.90;99.90;;;;;;4984962;28;20128;-78
2023/08/28 10:03:20;;;;;;;4.38;3.58;;;23.00;99.90;;;;;;5000883;28;20395;-77
2023/08/28 10:05:46;;;;;;;7.43;4.00;;;23.10;99.90;;;;;;4987247;28;20037;-77
2023/08/28 10:08:15;;;;;;;4.82;3.70;;;23.30;99.90;;;;;;5001275;28;20030;-77
2023/08/28 10:10:46;;;;;;;6.55;3.92;;;23.50;99.90;;;;;;4985477;28;20038;-78
2023/08/28 10:13:19;;;;;;;5.95;4.43;;;23.60;99.90;;;;;;4981495;28;20120;-78
2023/08/28 10:16:13;;;;;;;5.97;3.90;;;23.60;99.90;;;;;;4997651;28;20025;-79
2023/08/28 10:18:47;;;;;;;4.50;3.55;;;23.60;99.90;;;;;;4999523;28;20136;-78
2023/08/28 10:21:12;;;;;;;3.45;3.13;;;23.70;99.90;;;;;;4988528;28;20041;-78
2023/08/28 10:23:38;;;;;;;5.60;3.58;;;23.70;99.90;;;;;;4985115;28;20596;-78
2023/08/28 10:26:03;;;;;;;4.95;3.58;;;23.80;99.90;;;;;;4997172;28;20825;-77
2023/08/28 10:28:29;;;;;;;4.25;2.92;;;24.00;99.90;;;;;;5003604;28;20455;-78
2023/08/28 10:30:56;;;;;;;7.47;3.60;;;24.10;99.90;;;;;;4994012;28;20056;-80
2023/08/28 10:33:21;;;;;;;4.40;3.35;;;24.20;99.90;;;;;;4985550;28;20034;-77
2023/08/28 10:35:51;;;;;;;5.20;3.78;;;24.30;99.90;;;;;;4972018;28;20061;-78
2023/08/28 10:38:20;;;;;;;3.90;3.17;;;24.40;99.90;;;;;;5002628;28;20041;-79
2023/08/28 10:40:53;;;;;;;3.70;3.00;;;24.50;99.90;;;;;;4988277;28;20405;-79
2023/08/28 10:43:19;;;;;;;4.10;3.30;;;24.50;99.90;;;;;;4988716;28;20124;-78
2023/08/28 10:45:45;;;;;;;3.72;3.33;;;24.50;99.90;;;;;;4974710;28;20557;-78
2023/08/28 10:48:10;;;;;;;6.63;3.33;;;24.60;99.90;;;;;;5005026;28;20029;-79
2023/08/28 10:50:37;;;;;;;8.07;4.03;;;24.80;99.90;;;;;;4968242;28;20025;-81
2023/08/28 10:53:03;;;;;;;3.80;3.28;;;25.00;99.90;;;;;;4971509;28;20038;-79
2023/08/28 10:55:29;;;;;;;5.05;3.30;;;25.20;99.90;;;;;;4986949;28;20021;-79
2023/08/28 10:57:54;;;;;;;5.57;3.92;;;25.30;99.90;;;;;;4989005;28;20498;-79
2023/08/28 11:00:24;;;;;;;5.65;4.07;;;25.40;99.90;;;;;;5003826;28;20042;-79
2023/08/28 11:03:07;;;;;;;4.45;4.05;;;25.40;99.90;;;;;;5001001;28;20078;-79
2023/08/28 11:05:33;;;;;;;5.68;3.67;;;25.60;99.20;;;;;;4977347;28;20116;-79
2023/08/28 11:08:04;;;;;;;5.63;4.60;;;25.70;99.10;;;;;;5003663;28;20198;-79
2023/08/28 11:10:30;;;;;;;8.73;5.05;;;25.70;99.40;;;;;;4987919;28;20029;-80
2023/08/28 11:12:59;;;;;;;8.88;5.18;;;25.70;98.20;;;;;;4987840;28;20040;-80
2023/08/28 11:15:26;;;;;;;5.93;4.72;;;25.90;98.60;;;;;;5004300;28;20033;-79
2023/08/28 11:18:12;;;;;;;9.02;4.88;;;26.00;98.90;;;;;;4982630;28;20049;-79
2023/08/28 11:20:38;;;;;;;;;;;26.00;98.10;;;;;;5002339;28;20026;-80
2023/08/28 11:23:03;;;;;;;6.97;4.93;;;25.90;97.50;;;;;;4987267;28;19935;-80
2023/08/28 11:25:36;;;;;;;6.32;4.50;;;26.00;97.50;;;;;;4997891;28;20261;-80
2023/08/28 11:28:02;;;;;;;7.72;4.88;;;26.10;98.00;;;;;;4985645;28;20040;-80
2023/08/28 11:30:28;;;;;;;9.80;6.25;;;26.00;96.80;;;;;;4988403;28;20858;-80
2023/08/28 11:32:55;;;;;;;9.57;5.05;;;26.30;97.00;;;;;;4986280;28;20127;-80
2023/08/28 11:35:22;;;;;;;6.72;4.88;;;26.40;95.90;;;;;;4987872;28;20045;-80
2023/08/28 11:37:51;;;;;;;10.80;5.18;;;26.50;96.40;;;;;;5001181;28;20042;-80
2023/08/28 11:40:19;;;;;;;9.00;5.45;;;26.60;95.90;;;;;;4988791;28;20034;-80
2023/08/28 11:42:46;;;;;;;8.30;5.57;;;26.80;96.60;;;;;;4990469;28;20357;-80
2023/08/28 11:45:20;;;;;;;7.13;5.15;;;26.90;94.50;;;;;;4988670;28;20077;-80
2023/08/28 11:47:46;;;;;;;5.22;3.88;;;26.80;93.90;;;;;;5003119;28;20038;-80
2023/08/28 11:50:11;;;;;;;7.75;3.50;;;26.90;94.40;;;;;;4982423;28;20091;-80
2023/08/28 11:52:37;;;;;;;5.57;4.05;;;26.90;94.40;;;;;;5003352;28;20602;-80
2023/08/28 11:55:04;;;;;;;5.85;4.65;;;27.00;94.20;;;;;;4985410;28;20633;-80
2023/08/28 11:57:30;;;;;;;7.85;4.20;;;27.10;94.50;;;;;;4999991;28;20279;-80
2023/08/28 11:59:56;;;;;;;8.27;4.45;;;27.20;93.90;;;;;;4967825;28;20033;-80
2023/08/28 12:02:22;;;;;;;7.75;5.15;;;27.20;94.40;;;;;;4985308;28;20466;-81
2023/08/28 12:04:50;;;;;;;9.15;5.68;;;27.20;94.10;;;;;;4987944;28;20108;-80
2023/08/28 12:07:20;;;;;;;6.03;5.07;;;27.40;93.40;;;;;;4988625;28;20060;-81
2023/08/28 12:09:49;;;;;;;8.85;5.90;;;27.40;92.70;;;;;;5000550;28;20040;-81
2023/08/28 12:12:15;;;;;;;5.22;3.97;;;27.50;92.60;;;;;;4987496;28;20049;-82
2023/08/28 12:14:44;;;;;;;8.73;5.13;;;27.60;94.20;;;;;;5000472;28;20492;-81
2023/08/28 12:17:16;;;;;;;5.95;4.57;;;27.60;93.60;;;;;;5007598;28;20732;-81
2023/08/28 12:19:42;;;;;;;6.50;4.90;;;27.70;93.40;;;;;;4982687;28;20036;-82
2023/08/28 12:22:08;;;;;;;5.72;3.80;;;27.70;91.50;;;;;;4972053;28;20530;-82
2023/08/28 12:24:41;;;;;;;7.78;4.13;;;27.90;91.80;;;;;;4985737;28;20029;-82
2023/08/28 12:27:08;;;;;;;6.47;4.30;;;27.90;91.20;;;;;;5004921;28;20390;-81
2023/08/28 12:29:34;;;;;;;6.60;4.38;;;28.10;91.10;;;;;;4970500;28;20033;-81
2023/08/28 12:31:59;;;;;;;6.32;4.65;;;28.30;90.00;;;;;;4968664;28;20042;-81
2023/08/28 12:34:30;;;;;;;4.30;3.75;;;28.40;87.70;;;;;;4986916;28;20088;-81
2023/08/28 12:37:05;;;;;;;6.97;4.25;;;28.40;87.50;;;;;;4996242;28;20018;-83
2023/08/28 12:39:31;;;;;;;6.70;4.18;;;28.60;87.60;;;;;;4986141;28;20077;-81
2023/08/28 12:41:57;;;;;;;7.50;4.00;;;28.70;87.60;;;;;;4984625;28;20072;-81
2023/08/28 12:44:23;;;;;;;6.22;3.75;;;29.00;90.00;;;;;;4986477;28;20029;-82